sensor_id;sensor_type;location;lat;lon;timestamp;pressure;altitude;pressure_sealevel;temperature;humidity
74163;BME280;62515;52.758;5.076;2022-08-20T00:02:12;101661.69;;;17.70;87.32
74163;BME280;62515;52.758;5.076;2022-08-20T00:04:39;101648.88;;;17.63;85.95
74163;BME280;62515;52.758;5.076;2022-08-20T00:07:06;101665.22;;;17.71;86.39
74163;BME280;62515;52.758;5.076;2022-08-20T00:09:33;101659.38;;;17.66;86.09
74163;BME280;62515;52.758;5.076;2022-08-20T00:12:03;101673.25;;;17.61;85.69
74163;BME280;62515;52.758;5.076;2022-08-20T00:14:31;101670.97;;;17.57;85.75
74163;BME280;62515;52.758;5.076;2022-08-20T00:17:01;101670.22;;;17.55;85.95
74163;BME280;62515;52.758;5.076;2022-08-20T00:19:28;101658.72;;;17.53;86.35
74163;BME280;62515;52.758;5.076;2022-08-20T00:21:55;101664.72;;;17.56;86.54
74163;BME280;62515;52.758;5.076;2022-08-20T00:24:24;101661.56;;;17.51;86.27
74163;BME280;62515;52.758;5.076;2022-08-20T00:26:51;101672.72;;;17.47;85.25
74163;BME280;62515;52.758;5.076;2022-08-20T00:29:18;101671.75;;;17.48;85.79
74163;BME280;62515;52.758;5.076;2022-08-20T00:31:46;101670.63;;;17.50;84.45
74163;BME280;62515;52.758;5.076;2022-08-20T00:34:14;101678.56;;;17.52;82.63
74163;BME280;62515;52.758;5.076;2022-08-20T00:36:41;101672.91;;;17.55;82.55
74163;BME280;62515;52.758;5.076;2022-08-20T00:39:08;101680.00;;;17.56;83.12
74163;BME280;62515;52.758;5.076;2022-08-20T00:41:35;101663.28;;;17.52;84.58
74163;BME280;62515;52.758;5.076;2022-08-20T00:44:08;101666.34;;;17.48;87.43
74163;BME280;62515;52.758;5.076;2022-08-20T00:46:36;101652.97;;;17.37;85.95
74163;BME280;62515;52.758;5.076;2022-08-20T00:49:04;101658.63;;;17.34;83.62
74163;BME280;62515;52.758;5.076;2022-08-20T00:51:39;101647.97;;;17.22;83.04
74163;BME280;62515;52.758;5.076;2022-08-20T00:54:13;101661.59;;;17.31;83.10
74163;BME280;62515;52.758;5.076;2022-08-20T00:56:43;101655.34;;;17.30;82.43
74163;BME280;62515;52.758;5.076;2022-08-20T00:59:14;101657.06;;;17.31;81.84
74163;BME280;62515;52.758;5.076;2022-08-20T01:01:44;101673.47;;;17.28;81.99
74163;BME280;62515;52.758;5.076;2022-08-20T01:04:22;101664.22;;;17.21;84.04
74163;BME280;62515;52.758;5.076;2022-08-20T01:06:52;101656.09;;;17.11;83.75
74163;BME280;62515;52.758;5.076;2022-08-20T01:09:19;101656.03;;;17.02;85.47
74163;BME280;62515;52.758;5.076;2022-08-20T01:12:06;101652.84;;;16.87;86.49
74163;BME280;62515;52.758;5.076;2022-08-20T01:14:35;101654.09;;;16.72;83.55
74163;BME280;62515;52.758;5.076;2022-08-20T01:17:14;101655.59;;;16.65;83.94
74163;BME280;62515;52.758;5.076;2022-08-20T01:19:46;101662.25;;;16.61;86.77
74163;BME280;62515;52.758;5.076;2022-08-20T01:22:20;101658.22;;;16.55;87.06
74163;BME280;62515;52.758;5.076;2022-08-20T01:25:12;101659.56;;;16.50;85.98
74163;BME280;62515;52.758;5.076;2022-08-20T01:27:41;101665.06;;;16.48;86.38
74163;BME280;62515;52.758;5.076;2022-08-20T01:30:12;101665.94;;;16.38;85.86
74163;BME280;62515;52.758;5.076;2022-08-20T01:32:39;101653.28;;;16.29;86.33
74163;BME280;62515;52.758;5.076;2022-08-20T01:35:07;101676.81;;;16.36;86.51
74163;BME280;62515;52.758;5.076;2022-08-20T01:37:35;101674.72;;;16.40;87.36
74163;BME280;62515;52.758;5.076;2022-08-20T01:40:03;101676.19;;;16.44;86.66
74163;BME280;62515;52.758;5.076;2022-08-20T01:42:41;101676.78;;;16.47;88.39
74163;BME280;62515;52.758;5.076;2022-08-20T01:45:24;101678.88;;;16.44;85.39
74163;BME280;62515;52.758;5.076;2022-08-20T01:47:56;101684.25;;;16.44;85.15
74163;BME280;62515;52.758;5.076;2022-08-20T01:50:26;101681.19;;;16.48;83.46
74163;BME280;62515;52.758;5.076;2022-08-20T01:52:58;101673.25;;;16.47;83.49
74163;BME280;62515;52.758;5.076;2022-08-20T01:55:26;101677.38;;;16.51;85.45
74163;BME280;62515;52.758;5.076;2022-08-20T01:57:55;101686.31;;;16.51;84.93
74163;BME280;62515;52.758;5.076;2022-08-20T02:00:23;101675.56;;;16.51;87.03
74163;BME280;62515;52.758;5.076;2022-08-20T02:02:51;101671.53;;;16.46;85.31
74163;BME280;62515;52.758;5.076;2022-08-20T02:05:18;101686.22;;;16.42;87.47
74163;BME280;62515;52.758;5.076;2022-08-20T02:07:45;101686.84;;;16.34;86.63
74163;BME280;62515;52.758;5.076;2022-08-20T02:10:14;101689.78;;;16.31;86.97
74163;BME280;62515;52.758;5.076;2022-08-20T02:12:41;101692.56;;;16.30;86.29
74163;BME280;62515;52.758;5.076;2022-08-20T02:15:10;101686.94;;;16.33;86.16
74163;BME280;62515;52.758;5.076;2022-08-20T02:17:38;101690.13;;;16.38;86.96
74163;BME280;62515;52.758;5.076;2022-08-20T02:20:09;101688.16;;;16.40;87.26
74163;BME280;62515;52.758;5.076;2022-08-20T02:22:40;101686.78;;;16.45;84.65
74163;BME280;62515;52.758;5.076;2022-08-20T02:25:17;101685.44;;;16.51;84.63
74163;BME280;62515;52.758;5.076;2022-08-20T02:27:46;101694.13;;;16.54;84.10
74163;BME280;62515;52.758;5.076;2022-08-20T02:30:18;101686.94;;;16.55;85.67
74163;BME280;62515;52.758;5.076;2022-08-20T02:32:54;101683.03;;;16.48;86.28
74163;BME280;62515;52.758;5.076;2022-08-20T02:35:22;101687.03;;;16.42;87.03
74163;BME280;62515;52.758;5.076;2022-08-20T02:37:50;101690.00;;;16.39;88.12
74163;BME280;62515;52.758;5.076;2022-08-20T02:40:19;101693.19;;;16.33;87.19
74163;BME280;62515;52.758;5.076;2022-08-20T02:42:56;101687.72;;;16.23;87.10
74163;BME280;62515;52.758;5.076;2022-08-20T02:45:25;101694.31;;;16.19;87.14
74163;BME280;62515;52.758;5.076;2022-08-20T02:47:52;101691.25;;;16.13;86.27
74163;BME280;62515;52.758;5.076;2022-08-20T02:50:21;101694.34;;;16.08;86.84
74163;BME280;62515;52.758;5.076;2022-08-20T02:52:49;101686.75;;;16.13;85.77
74163;BME280;62515;52.758;5.076;2022-08-20T02:55:18;101685.06;;;16.12;85.83
74163;BME280;62515;52.758;5.076;2022-08-20T02:57:54;101687.88;;;16.00;86.46
74163;BME280;62515;52.758;5.076;2022-08-20T03:00:28;101686.94;;;15.90;87.97
74163;BME280;62515;52.758;5.076;2022-08-20T03:03:04;101689.84;;;15.76;88.63
74163;BME280;62515;52.758;5.076;2022-08-20T03:05:31;101683.03;;;15.60;89.89
74163;BME280;62515;52.758;5.076;2022-08-20T03:07:58;101679.84;;;15.55;89.32
74163;BME280;62515;52.758;5.076;2022-08-20T03:10:27;101679.94;;;15.43;88.84
74163;BME280;62515;52.758;5.076;2022-08-20T03:12:55;101683.72;;;15.40;88.88
74163;BME280;62515;52.758;5.076;2022-08-20T03:15:22;101687.00;;;15.44;88.28
74163;BME280;62515;52.758;5.076;2022-08-20T03:17:51;101684.06;;;15.36;88.05
74163;BME280;62515;52.758;5.076;2022-08-20T03:20:18;101687.72;;;15.35;88.16
74163;BME280;62515;52.758;5.076;2022-08-20T03:22:50;101676.13;;;15.23;87.97
74163;BME280;62515;52.758;5.076;2022-08-20T03:25:17;101692.22;;;15.23;88.78
74163;BME280;62515;52.758;5.076;2022-08-20T03:27:44;101681.59;;;15.10;88.16
74163;BME280;62515;52.758;5.076;2022-08-20T03:30:19;101698.84;;;14.95;89.16
74163;BME280;62515;52.758;5.076;2022-08-20T03:32:46;101690.28;;;14.79;90.25
74163;BME280;62515;52.758;5.076;2022-08-20T03:35:16;101693.38;;;14.73;91.63
74163;BME280;62515;52.758;5.076;2022-08-20T03:37:44;101695.28;;;14.60;90.96
74163;BME280;62515;52.758;5.076;2022-08-20T03:40:23;101694.06;;;14.53;91.38
74163;BME280;62515;52.758;5.076;2022-08-20T03:42:50;101695.09;;;14.50;92.59
74163;BME280;62515;52.758;5.076;2022-08-20T03:45:19;101706.19;;;14.46;92.60
74163;BME280;62515;52.758;5.076;2022-08-20T03:47:47;101694.84;;;14.42;92.80
74163;BME280;62515;52.758;5.076;2022-08-20T03:50:17;101704.59;;;14.43;93.06
74163;BME280;62515;52.758;5.076;2022-08-20T03:52:49;101704.47;;;14.45;93.23
74163;BME280;62515;52.758;5.076;2022-08-20T03:55:17;101707.38;;;14.42;92.81
74163;BME280;62515;52.758;5.076;2022-08-20T03:57:45;101707.81;;;14.36;92.40
74163;BME280;62515;52.758;5.076;2022-08-20T04:00:14;101716.59;;;14.38;93.24
74163;BME280;62515;52.758;5.076;2022-08-20T04:02:41;101705.16;;;14.36;92.68
74163;BME280;62515;52.758;5.076;2022-08-20T04:05:08;101706.88;;;14.37;92.54
74163;BME280;62515;52.758;5.076;2022-08-20T04:07:37;101706.00;;;14.36;91.25
74163;BME280;62515;52.758;5.076;2022-08-20T04:10:07;101710.59;;;14.34;91.61
74163;BME280;62515;52.758;5.076;2022-08-20T04:12:36;101697.75;;;14.27;91.82
74163;BME280;62515;52.758;5.076;2022-08-20T04:15:19;101711.75;;;14.43;94.12
74163;BME280;62515;52.758;5.076;2022-08-20T04:17:48;101715.84;;;14.36;93.61
74163;BME280;62515;52.758;5.076;2022-08-20T04:20:21;101710.84;;;14.19;93.25
74163;BME280;62515;52.758;5.076;2022-08-20T04:22:52;101721.34;;;14.09;93.71
74163;BME280;62515;52.758;5.076;2022-08-20T04:25:25;101728.25;;;14.00;94.24
74163;BME280;62515;52.758;5.076;2022-08-20T04:27:55;101719.03;;;13.92;93.32
74163;BME280;62515;52.758;5.076;2022-08-20T04:30:24;101723.97;;;13.85;94.61
74163;BME280;62515;52.758;5.076;2022-08-20T04:32:51;101721.94;;;13.76;93.94
74163;BME280;62515;52.758;5.076;2022-08-20T04:35:20;101723.34;;;13.69;93.61
74163;BME280;62515;52.758;5.076;2022-08-20T04:37:57;101721.09;;;13.63;94.27
74163;BME280;62515;52.758;5.076;2022-08-20T04:40:24;101726.22;;;13.66;94.33
74163;BME280;62515;52.758;5.076;2022-08-20T04:43:09;101730.84;;;13.64;95.00
74163;BME280;62515;52.758;5.076;2022-08-20T04:45:38;101737.28;;;13.61;95.01
74163;BME280;62515;52.758;5.076;2022-08-20T04:48:06;101734.47;;;13.63;95.31
74163;BME280;62515;52.758;5.076;2022-08-20T04:50:42;101736.19;;;13.64;95.36
74163;BME280;62515;52.758;5.076;2022-08-20T04:53:13;101742.41;;;13.65;94.98
74163;BME280;62515;52.758;5.076;2022-08-20T04:55:43;101741.56;;;13.64;94.62
74163;BME280;62515;52.758;5.076;2022-08-20T04:58:12;101748.06;;;13.60;93.84
74163;BME280;62515;52.758;5.076;2022-08-20T05:00:39;101737.16;;;13.63;94.71
74163;BME280;62515;52.758;5.076;2022-08-20T05:03:06;101739.19;;;13.72;94.59
74163;BME280;62515;52.758;5.076;2022-08-20T05:05:34;101734.03;;;13.69;94.27
74163;BME280;62515;52.758;5.076;2022-08-20T05:08:04;101745.28;;;13.74;93.92
74163;BME280;62515;52.758;5.076;2022-08-20T05:10:44;101743.47;;;13.75;94.54
74163;BME280;62515;52.758;5.076;2022-08-20T05:13:11;101745.72;;;13.68;93.15
74163;BME280;62515;52.758;5.076;2022-08-20T05:15:38;101747.84;;;13.76;94.16
74163;BME280;62515;52.758;5.076;2022-08-20T05:18:07;101752.03;;;13.80;93.79
74163;BME280;62515;52.758;5.076;2022-08-20T05:20:39;101761.13;;;13.77;93.79
74163;BME280;62515;52.758;5.076;2022-08-20T05:23:08;101754.91;;;13.77;94.37
74163;BME280;62515;52.758;5.076;2022-08-20T05:25:36;101744.94;;;13.79;94.54
74163;BME280;62515;52.758;5.076;2022-08-20T05:28:07;101747.53;;;13.80;94.00
74163;BME280;62515;52.758;5.076;2022-08-20T05:30:39;101752.88;;;13.93;93.66
74163;BME280;62515;52.758;5.076;2022-08-20T05:33:08;101757.78;;;13.99;93.83
74163;BME280;62515;52.758;5.076;2022-08-20T05:35:37;101761.50;;;14.09;93.33
74163;BME280;62515;52.758;5.076;2022-08-20T05:38:05;101761.16;;;14.26;92.27
74163;BME280;62515;52.758;5.076;2022-08-20T05:40:33;101757.13;;;14.33;91.77
74163;BME280;62515;52.758;5.076;2022-08-20T05:43:00;101764.91;;;14.36;91.63
74163;BME280;62515;52.758;5.076;2022-08-20T05:45:31;101764.75;;;14.50;91.01
74163;BME280;62515;52.758;5.076;2022-08-20T05:48:03;101760.81;;;14.67;89.81
74163;BME280;62515;52.758;5.076;2022-08-20T05:50:30;101769.16;;;14.75;89.89
74163;BME280;62515;52.758;5.076;2022-08-20T05:52:57;101770.66;;;14.79;89.57
74163;BME280;62515;52.758;5.076;2022-08-20T05:55:24;101775.78;;;14.82;89.27
74163;BME280;62515;52.758;5.076;2022-08-20T05:57:55;101777.00;;;14.89;89.16
74163;BME280;62515;52.758;5.076;2022-08-20T06:00:23;101786.84;;;15.01;88.77
74163;BME280;62515;52.758;5.076;2022-08-20T06:02:51;101775.13;;;15.02;88.52
74163;BME280;62515;52.758;5.076;2022-08-20T06:05:36;101785.19;;;15.11;88.00
74163;BME280;62515;52.758;5.076;2022-08-20T06:08:04;101781.41;;;15.14;88.38
74163;BME280;62515;52.758;5.076;2022-08-20T06:10:34;101786.41;;;15.18;88.49
74163;BME280;62515;52.758;5.076;2022-08-20T06:13:03;101764.22;;;15.16;87.87
74163;BME280;62515;52.758;5.076;2022-08-20T06:15:31;101787.31;;;15.30;87.96
74163;BME280;62515;52.758;5.076;2022-08-20T06:18:04;101779.53;;;15.38;88.05
74163;BME280;62515;52.758;5.076;2022-08-20T06:20:53;101776.03;;;15.49;87.82
74163;BME280;62515;52.758;5.076;2022-08-20T06:23:20;101783.91;;;15.63;87.61
74163;BME280;62515;52.758;5.076;2022-08-20T06:25:48;101773.41;;;15.71;88.01
74163;BME280;62515;52.758;5.076;2022-08-20T06:28:16;101770.00;;;15.80;87.59
74163;BME280;62515;52.758;5.076;2022-08-20T06:30:43;101772.69;;;15.91;87.64
74163;BME280;62515;52.758;5.076;2022-08-20T06:33:11;101770.28;;;15.99;87.46
74163;BME280;62515;52.758;5.076;2022-08-20T06:35:38;101777.59;;;16.08;87.50
74163;BME280;62515;52.758;5.076;2022-08-20T06:38:08;101783.19;;;16.16;87.21
74163;BME280;62515;52.758;5.076;2022-08-20T06:40:35;101776.34;;;16.23;87.17
74163;BME280;62515;52.758;5.076;2022-08-20T06:43:02;101779.75;;;16.37;87.47
74163;BME280;62515;52.758;5.076;2022-08-20T06:45:31;101781.31;;;16.50;85.65
74163;BME280;62515;52.758;5.076;2022-08-20T06:48:00;101788.31;;;16.64;84.31
74163;BME280;62515;52.758;5.076;2022-08-20T06:50:31;101779.22;;;16.76;80.41
74163;BME280;62515;52.758;5.076;2022-08-20T06:52:58;101780.97;;;16.98;79.09
74163;BME280;62515;52.758;5.076;2022-08-20T06:55:26;101770.88;;;17.11;79.39
74163;BME280;62515;52.758;5.076;2022-08-20T06:57:57;101776.41;;;17.09;80.06
74163;BME280;62515;52.758;5.076;2022-08-20T07:00:25;101781.38;;;17.14;80.76
74163;BME280;62515;52.758;5.076;2022-08-20T07:02:53;101777.19;;;17.21;81.13
74163;BME280;62515;52.758;5.076;2022-08-20T07:05:21;101773.88;;;17.29;78.89
74163;BME280;62515;52.758;5.076;2022-08-20T07:07:49;101779.66;;;17.45;77.83
74163;BME280;62515;52.758;5.076;2022-08-20T07:10:19;101782.19;;;17.57;75.76
74163;BME280;62515;52.758;5.076;2022-08-20T07:12:46;101787.03;;;17.63;76.63
74163;BME280;62515;52.758;5.076;2022-08-20T07:15:17;101789.50;;;17.76;74.24
74163;BME280;62515;52.758;5.076;2022-08-20T07:17:48;101790.47;;;17.96;72.48
74163;BME280;62515;52.758;5.076;2022-08-20T07:20:15;101795.78;;;18.07;71.51
74163;BME280;62515;52.758;5.076;2022-08-20T07:22:42;101795.06;;;18.14;71.09
74163;BME280;62515;52.758;5.076;2022-08-20T07:25:14;101797.00;;;18.23;71.65
74163;BME280;62515;52.758;5.076;2022-08-20T07:27:41;101797.03;;;18.33;70.60
74163;BME280;62515;52.758;5.076;2022-08-20T07:30:11;101790.66;;;18.44;68.50
74163;BME280;62515;52.758;5.076;2022-08-20T07:32:57;101800.22;;;18.57;70.46
74163;BME280;62515;52.758;5.076;2022-08-20T07:35:25;101803.53;;;18.70;67.56
74163;BME280;62515;52.758;5.076;2022-08-20T07:37:52;101800.84;;;18.80;64.28
74163;BME280;62515;52.758;5.076;2022-08-20T07:40:24;101810.78;;;18.89;65.69
74163;BME280;62515;52.758;5.076;2022-08-20T07:42:53;101810.09;;;18.97;63.09
74163;BME280;62515;52.758;5.076;2022-08-20T07:45:20;101805.44;;;19.08;64.68
74163;BME280;62515;52.758;5.076;2022-08-20T07:47:48;101808.69;;;19.12;63.87
74163;BME280;62515;52.758;5.076;2022-08-20T07:50:18;101807.56;;;19.33;64.16
74163;BME280;62515;52.758;5.076;2022-08-20T07:52:46;101808.28;;;19.45;62.48
74163;BME280;62515;52.758;5.076;2022-08-20T07:55:15;101810.53;;;19.69;61.79
74163;BME280;62515;52.758;5.076;2022-08-20T07:57:44;101816.59;;;19.90;60.18
74163;BME280;62515;52.758;5.076;2022-08-20T08:00:16;101808.03;;;20.04;60.17
74163;BME280;62515;52.758;5.076;2022-08-20T08:02:43;101806.53;;;20.19;59.74
74163;BME280;62515;52.758;5.076;2022-08-20T08:05:11;101813.00;;;20.46;58.47
74163;BME280;62515;52.758;5.076;2022-08-20T08:07:39;101808.53;;;20.99;59.49
74163;BME280;62515;52.758;5.076;2022-08-20T08:10:11;101810.56;;;21.94;55.64
74163;BME280;62515;52.758;5.076;2022-08-20T08:12:44;101809.75;;;22.27;54.75
74163;BME280;62515;52.758;5.076;2022-08-20T08:15:15;101812.03;;;22.98;50.37
74163;BME280;62515;52.758;5.076;2022-08-20T08:17:45;101807.81;;;23.19;50.13
74163;BME280;62515;52.758;5.076;2022-08-20T08:20:14;101815.78;;;22.88;47.19
74163;BME280;62515;52.758;5.076;2022-08-20T08:22:42;101808.03;;;23.82;45.47
74163;BME280;62515;52.758;5.076;2022-08-20T08:25:10;101814.00;;;23.70;44.13
74163;BME280;62515;52.758;5.076;2022-08-20T08:27:38;101817.16;;;24.06;43.07
74163;BME280;62515;52.758;5.076;2022-08-20T08:30:08;101821.38;;;24.08;46.48
74163;BME280;62515;52.758;5.076;2022-08-20T08:32:36;101823.31;;;24.55;43.79
74163;BME280;62515;52.758;5.076;2022-08-20T08:35:04;101819.88;;;25.22;42.66
74163;BME280;62515;52.758;5.076;2022-08-20T08:37:34;101824.88;;;24.80;42.60
74163;BME280;62515;52.758;5.076;2022-08-20T08:40:01;101817.91;;;25.31;40.16
74163;BME280;62515;52.758;5.076;2022-08-20T08:42:34;101819.28;;;26.24;37.75
74163;BME280;62515;52.758;5.076;2022-08-20T08:45:11;101820.56;;;25.99;37.51
74163;BME280;62515;52.758;5.076;2022-08-20T08:47:38;101830.81;;;25.37;40.12
74163;BME280;62515;52.758;5.076;2022-08-20T08:50:11;101827.94;;;25.76;40.45
74163;BME280;62515;52.758;5.076;2022-08-20T08:52:40;101825.47;;;24.98;41.07
74163;BME280;62515;52.758;5.076;2022-08-20T08:55:13;101830.44;;;24.56;41.43
74163;BME280;62515;52.758;5.076;2022-08-20T08:57:45;101829.13;;;24.43;42.42
74163;BME280;62515;52.758;5.076;2022-08-20T09:00:19;101834.31;;;23.90;44.39
74163;BME280;62515;52.758;5.076;2022-08-20T09:02:57;101836.72;;;23.85;44.13
74163;BME280;62515;52.758;5.076;2022-08-20T09:05:30;101828.94;;;23.66;44.02
74163;BME280;62515;52.758;5.076;2022-08-20T09:08:00;101833.47;;;24.14;43.77
74163;BME280;62515;52.758;5.076;2022-08-20T09:10:29;101820.00;;;25.06;41.02
74163;BME280;62515;52.758;5.076;2022-08-20T09:12:56;101835.06;;;24.78;40.87
74163;BME280;62515;52.758;5.076;2022-08-20T09:15:24;101829.56;;;24.08;42.17
74163;BME280;62515;52.758;5.076;2022-08-20T09:17:51;101837.22;;;23.88;43.98
74163;BME280;62515;52.758;5.076;2022-08-20T09:20:18;101837.38;;;23.87;44.21
74163;BME280;62515;52.758;5.076;2022-08-20T09:22:48;101833.81;;;24.19;43.35
74163;BME280;62515;52.758;5.076;2022-08-20T09:25:18;101838.41;;;24.18;42.15
74163;BME280;62515;52.758;5.076;2022-08-20T09:27:45;101839.31;;;24.50;43.90
74163;BME280;62515;52.758;5.076;2022-08-20T09:30:14;101833.34;;;24.93;43.70
74163;BME280;62515;52.758;5.076;2022-08-20T09:32:45;101834.91;;;25.33;41.55
74163;BME280;62515;52.758;5.076;2022-08-20T09:35:12;101832.84;;;26.18;39.08
74163;BME280;62515;52.758;5.076;2022-08-20T09:37:39;101841.69;;;26.34;37.20
74163;BME280;62515;52.758;5.076;2022-08-20T09:40:07;101834.75;;;26.17;37.08
74163;BME280;62515;52.758;5.076;2022-08-20T09:42:36;101827.75;;;26.59;37.45
74163;BME280;62515;52.758;5.076;2022-08-20T09:45:08;101824.09;;;27.23;35.79
74163;BME280;62515;52.758;5.076;2022-08-20T09:47:37;101820.28;;;27.88;33.54
74163;BME280;62515;52.758;5.076;2022-08-20T09:50:09;101830.69;;;27.99;33.70
74163;BME280;62515;52.758;5.076;2022-08-20T09:52:43;101840.38;;;28.29;32.60
74163;BME280;62515;52.758;5.076;2022-08-20T09:55:19;101839.59;;;27.80;33.95
74163;BME280;62515;52.758;5.076;2022-08-20T09:57:47;101831.94;;;28.24;33.13
74163;BME280;62515;52.758;5.076;2022-08-20T10:00:15;101833.75;;;28.86;33.00
74163;BME280;62515;52.758;5.076;2022-08-20T10:02:43;101829.13;;;28.93;33.10
74163;BME280;62515;52.758;5.076;2022-08-20T10:05:12;101819.69;;;29.15;32.64
74163;BME280;62515;52.758;5.076;2022-08-20T10:07:39;101829.91;;;29.54;30.42
74163;BME280;62515;52.758;5.076;2022-08-20T10:10:09;101839.22;;;26.69;36.93
74163;BME280;62515;52.758;5.076;2022-08-20T10:12:36;101835.03;;;25.39;42.05
74163;BME280;62515;52.758;5.076;2022-08-20T10:15:04;101822.84;;;25.35;41.20
74163;BME280;62515;52.758;5.076;2022-08-20T10:17:31;101826.88;;;26.87;38.37
74163;BME280;62515;52.758;5.076;2022-08-20T10:19:58;101826.91;;;28.28;34.88
74163;BME280;62515;52.758;5.076;2022-08-20T10:22:26;101828.34;;;28.65;35.29
74163;BME280;62515;52.758;5.076;2022-08-20T10:24:53;101819.53;;;29.76;31.41
74163;BME280;62515;52.758;5.076;2022-08-20T10:27:21;101826.47;;;30.24;30.92
74163;BME280;62515;52.758;5.076;2022-08-20T10:29:48;101830.16;;;28.44;35.85
74163;BME280;62515;52.758;5.076;2022-08-20T10:32:15;101839.53;;;26.44;37.56
74163;BME280;62515;52.758;5.076;2022-08-20T10:34:44;101822.91;;;25.50;41.21
74163;BME280;62515;52.758;5.076;2022-08-20T10:37:13;101827.81;;;24.31;44.03
74163;BME280;62515;52.758;5.076;2022-08-20T10:39:43;101825.09;;;25.01;43.26
74163;BME280;62515;52.758;5.076;2022-08-20T10:42:10;101821.47;;;24.86;45.00
74163;BME280;62515;52.758;5.076;2022-08-20T10:44:37;101824.09;;;24.16;46.47
74163;BME280;62515;52.758;5.076;2022-08-20T10:47:15;101824.59;;;24.20;42.01
74163;BME280;62515;52.758;5.076;2022-08-20T10:49:43;101817.81;;;24.00;41.44
74163;BME280;62515;52.758;5.076;2022-08-20T10:52:10;101824.75;;;24.34;45.32
74163;BME280;62515;52.758;5.076;2022-08-20T10:54:37;101815.44;;;25.67;41.36
74163;BME280;62515;52.758;5.076;2022-08-20T10:57:13;101826.09;;;24.77;41.28
74163;BME280;62515;52.758;5.076;2022-08-20T10:59:42;101824.09;;;24.24;42.83
74163;BME280;62515;52.758;5.076;2022-08-20T11:02:09;101828.75;;;23.59;43.16
74163;BME280;62515;52.758;5.076;2022-08-20T11:04:36;101831.22;;;23.12;45.92
74163;BME280;62515;52.758;5.076;2022-08-20T11:07:11;101835.28;;;23.00;45.96
74163;BME280;62515;52.758;5.076;2022-08-20T11:09:38;101829.72;;;23.02;45.87
74163;BME280;62515;52.758;5.076;2022-08-20T11:12:06;101816.03;;;23.43;45.54
74163;BME280;62515;52.758;5.076;2022-08-20T11:14:34;101822.81;;;23.48;44.60
74163;BME280;62515;52.758;5.076;2022-08-20T11:17:01;101834.19;;;23.43;47.81
74163;BME280;62515;52.758;5.076;2022-08-20T11:19:29;101832.16;;;23.61;46.30
74163;BME280;62515;52.758;5.076;2022-08-20T11:21:56;101831.44;;;24.16;44.37
74163;BME280;62515;52.758;5.076;2022-08-20T11:24:23;101831.81;;;24.52;42.66
74163;BME280;62515;52.758;5.076;2022-08-20T11:26:50;101831.78;;;24.60;45.04
74163;BME280;62515;52.758;5.076;2022-08-20T11:29:21;101829.00;;;25.75;41.78
74163;BME280;62515;52.758;5.076;2022-08-20T11:31:50;101826.59;;;25.94;40.03
74163;BME280;62515;52.758;5.076;2022-08-20T11:34:17;101825.00;;;26.15;37.92
74163;BME280;62515;52.758;5.076;2022-08-20T11:36:44;101830.75;;;27.35;34.19
74163;BME280;62515;52.758;5.076;2022-08-20T11:39:12;101835.16;;;28.34;33.43
74163;BME280;62515;52.758;5.076;2022-08-20T11:41:39;101827.34;;;27.76;34.28
74163;BME280;62515;52.758;5.076;2022-08-20T11:44:11;101844.66;;;26.10;37.52
74163;BME280;62515;52.758;5.076;2022-08-20T11:46:48;101844.28;;;25.38;39.27
74163;BME280;62515;52.758;5.076;2022-08-20T11:49:15;101842.88;;;24.97;40.84
74163;BME280;62515;52.758;5.076;2022-08-20T11:51:42;101835.13;;;25.31;41.42
74163;BME280;62515;52.758;5.076;2022-08-20T11:54:15;101829.41;;;24.95;41.77
74163;BME280;62515;52.758;5.076;2022-08-20T11:56:42;101837.81;;;24.86;41.41
74163;BME280;62515;52.758;5.076;2022-08-20T11:59:11;101847.66;;;25.40;41.23
74163;BME280;62515;52.758;5.076;2022-08-20T12:01:38;101834.72;;;25.65;43.25
74163;BME280;62515;52.758;5.076;2022-08-20T12:04:07;101843.53;;;25.44;42.73
74163;BME280;62515;52.758;5.076;2022-08-20T12:06:34;101844.38;;;24.53;43.59
74163;BME280;62515;52.758;5.076;2022-08-20T12:09:01;101842.66;;;23.96;44.06
74163;BME280;62515;52.758;5.076;2022-08-20T12:11:28;101816.16;;;24.54;40.72
74163;BME280;62515;52.758;5.076;2022-08-20T12:13:55;101837.69;;;24.24;42.98
74163;BME280;62515;52.758;5.076;2022-08-20T12:16:22;101839.09;;;23.88;46.12
74163;BME280;62515;52.758;5.076;2022-08-20T12:18:49;101844.16;;;24.31;43.20
74163;BME280;62515;52.758;5.076;2022-08-20T12:21:20;101842.31;;;24.63;45.27
74163;BME280;62515;52.758;5.076;2022-08-20T12:23:47;101839.69;;;24.77;43.11
74163;BME280;62515;52.758;5.076;2022-08-20T12:26:14;101831.34;;;24.40;43.63
74163;BME280;62515;52.758;5.076;2022-08-20T12:28:42;101827.69;;;24.09;44.89
74163;BME280;62515;52.758;5.076;2022-08-20T12:31:09;101826.06;;;24.46;44.04
74163;BME280;62515;52.758;5.076;2022-08-20T12:33:36;101829.81;;;26.27;41.32
74163;BME280;62515;52.758;5.076;2022-08-20T12:36:03;101827.34;;;27.76;37.20
74163;BME280;62515;52.758;5.076;2022-08-20T12:38:31;101827.22;;;27.41;39.31
74163;BME280;62515;52.758;5.076;2022-08-20T12:40:58;101816.19;;;27.49;38.60
74163;BME280;62515;52.758;5.076;2022-08-20T12:43:26;101827.47;;;27.25;39.24
74163;BME280;62515;52.758;5.076;2022-08-20T12:45:53;101821.84;;;27.48;36.99
74163;BME280;62515;52.758;5.076;2022-08-20T12:48:21;101831.78;;;28.04;37.99
74163;BME280;62515;52.758;5.076;2022-08-20T12:50:47;101831.25;;;28.56;35.09
74163;BME280;62515;52.758;5.076;2022-08-20T12:53:16;101817.97;;;28.53;34.29
74163;BME280;62515;52.758;5.076;2022-08-20T12:55:44;101818.38;;;28.98;33.85
74163;BME280;62515;52.758;5.076;2022-08-20T12:58:12;101802.47;;;28.26;37.21
74163;BME280;62515;52.758;5.076;2022-08-20T13:00:40;101820.41;;;28.35;36.07
74163;BME280;62515;52.758;5.076;2022-08-20T13:03:14;101829.66;;;28.28;35.65